createdAt,value
2018-10-03T00:01:10.168Z,79.12
2018-10-03T00:04:13.691Z,79.53
2018-10-03T00:07:17.177Z,79.89
2018-10-03T00:10:20.697Z,80.13
2018-10-03T00:13:24.278Z,80.19
2018-10-03T00:16:27.783Z,80.06
2018-10-03T00:19:31.302Z,80.04
2018-10-03T00:22:34.864Z,79.83
2018-10-03T00:25:38.271Z,79.80
2018-10-03T00:28:41.685Z,80.12
2018-10-03T00:31:45.099Z,79.74
2018-10-03T00:34:48.589Z,79.46
2018-10-03T00:37:52.082Z,79.07
2018-10-03T00:40:55.595Z,78.75
2018-10-03T00:43:59.004Z,78.40
2018-10-03T00:47:02.483Z,78.08
2018-10-03T00:50:05.954Z,78.09
2018-10-03T00:53:09.417Z,77.91
2018-10-03T00:56:12.911Z,77.60
2018-10-03T00:59:16.420Z,77.33
2018-10-03T01:02:19.948Z,77.61
2018-10-03T01:05:23.422Z,77.72
2018-10-03T01:08:26.905Z,77.45
2018-10-03T01:11:30.300Z,77.60
2018-10-03T01:14:33.737Z,77.70
2018-10-03T01:17:37.305Z,77.54
2018-10-03T01:20:40.724Z,77.74
2018-10-03T01:23:44.353Z,77.57
2018-10-03T01:26:47.820Z,77.40
2018-10-03T01:29:51.198Z,77.62
2018-10-03T01:32:54.614Z,77.39
2018-10-03T01:35:58.016Z,77.51
2018-10-03T01:39:01.435Z,77.49
2018-10-03T01:42:04.984Z,77.21
2018-10-03T01:45:08.482Z,77.43
2018-10-03T01:48:11.999Z,77.69
2018-10-03T01:51:15.451Z,77.82
2018-10-03T01:54:18.920Z,77.50
2018-10-03T01:57:22.388Z,77.33
2018-10-03T02:00:25.857Z,77.12
2018-10-03T02:03:29.327Z,77.15
2018-10-03T02:06:32.769Z,77.34
2018-10-03T02:09:36.232Z,77.60
2018-10-03T02:12:39.643Z,77.29
2018-10-03T02:15:43.064Z,77.65
2018-10-03T02:18:46.568Z,77.33
2018-10-03T02:21:49.948Z,77.60
2018-10-03T02:24:53.348Z,77.93
2018-10-03T02:27:56.742Z,78.16
2018-10-03T02:31:00.157Z,77.87
2018-10-03T02:34:03.954Z,77.68
2018-10-03T02:37:07.350Z,77.34
2018-10-03T02:40:10.430Z,77.05
2018-10-03T02:43:13.845Z,77.31
2018-10-03T02:46:17.247Z,77.22
2018-10-03T02:49:20.650Z,76.88
2018-10-03T02:52:24.049Z,76.77
2018-10-03T02:55:27.442Z,76.42
2018-10-03T02:58:30.853Z,76.55
2018-10-03T03:01:34.326Z,76.63
2018-10-03T03:04:37.747Z,76.95
2018-10-03T03:07:41.163Z,77.00
2018-10-03T03:10:44.569Z,76.92
2018-10-03T03:13:47.956Z,77.23
2018-10-03T03:16:51.420Z,77.70
2018-10-03T03:19:54.885Z,78.26
2018-10-03T03:22:58.252Z,78.44
2018-10-03T03:26:01.628Z,78.47
2018-10-03T03:29:05.060Z,78.74
2018-10-03T03:32:08.447Z,79.45
2018-10-03T03:35:12.152Z,80.22
2018-10-03T03:38:15.553Z,80.36
2018-10-03T03:41:18.951Z,80.41
2018-10-03T03:44:22.364Z,80.71
2018-10-03T03:47:25.761Z,80.94
2018-10-03T03:50:29.790Z,80.94
2018-10-03T03:53:33.178Z,81.66
2018-10-03T03:56:36.566Z,81.79
2018-10-03T03:59:40.052Z,81.77
2018-10-03T04:02:43.474Z,81.40
2018-10-03T04:05:46.865Z,81.49
2018-10-03T04:08:50.282Z,81.64
2018-10-03T04:11:53.686Z,82.03
2018-10-03T04:14:57.046Z,81.77
2018-10-03T04:18:00.544Z,81.74
2018-10-03T04:21:03.999Z,81.57
2018-10-03T04:24:09.836Z,81.79
2018-10-03T04:27:13.221Z,81.56
2018-10-03T04:30:16.646Z,82.21
2018-10-03T04:33:20.012Z,81.82
2018-10-03T04:36:23.594Z,81.68
2018-10-03T04:39:27.036Z,82.02
2018-10-03T04:42:30.544Z,81.43
2018-10-03T04:45:34.025Z,81.11
2018-10-03T04:48:37.636Z,80.27
2018-10-03T04:51:42.213Z,80.14
2018-10-03T04:54:45.826Z,79.01
2018-10-03T04:57:49.276Z,78.19
2018-10-03T05:00:52.841Z,77.47
2018-10-03T05:03:56.270Z,77.51
2018-10-03T05:06:59.789Z,76.96
2018-10-03T05:10:03.338Z,77.17
2018-10-03T05:13:06.882Z,77.20
2018-10-03T05:16:10.397Z,77.60
2018-10-03T05:19:13.918Z,77.50
2018-10-03T05:22:17.388Z,77.61
2018-10-03T05:25:20.907Z,78.12
2018-10-03T05:28:24.457Z,78.22
2018-10-03T05:31:27.947Z,78.55
2018-10-03T05:34:31.417Z,78.53
2018-10-03T05:37:35.348Z,78.82
2018-10-03T05:40:38.851Z,79.14
2018-10-03T05:43:42.321Z,79.20
2018-10-03T05:46:45.819Z,79.54
2018-10-03T05:49:49.329Z,79.98
2018-10-03T05:52:52.844Z,80.21
2018-10-03T05:55:56.334Z,81.80
2018-10-03T05:58:59.924Z,84.15
2018-10-03T06:02:03.613Z,86.00
2018-10-03T06:05:07.385Z,87.16
2018-10-03T06:08:10.851Z,89.37
2018-10-03T06:11:14.368Z,89.85
2018-10-03T06:14:18.153Z,91.01
2018-10-03T06:17:21.690Z,92.11
2018-10-03T06:20:25.176Z,92.27
2018-10-03T06:23:28.791Z,92.56
2018-10-03T06:26:32.278Z,93.07
2018-10-03T06:29:35.917Z,92.59
2018-10-03T06:32:39.398Z,93.61
2018-10-03T06:35:42.892Z,92.79
2018-10-03T06:38:46.470Z,93.12
2018-10-03T06:41:50.087Z,92.91
2018-10-03T06:44:54.578Z,93.37
2018-10-03T06:47:59.667Z,94.04
2018-10-03T06:51:03.147Z,94.49
2018-10-03T06:54:06.373Z,93.86
2018-10-03T06:57:10.105Z,93.04
2018-10-03T07:00:13.620Z,93.33
2018-10-03T07:03:17.352Z,93.02
2018-10-03T07:06:20.797Z,92.62
2018-10-03T07:09:24.295Z,92.42
2018-10-03T07:12:27.985Z,91.97
2018-10-03T07:15:31.522Z,91.22
2018-10-03T07:18:35.049Z,90.98
2018-10-03T07:21:39.603Z,90.46
2018-10-03T07:24:43.107Z,90.04
2018-10-03T07:27:46.561Z,89.75
2018-10-03T07:30:50.066Z,90.03
2018-10-03T07:33:53.527Z,89.01
2018-10-03T07:36:56.925Z,89.08
2018-10-03T07:40:00.441Z,89.02
2018-10-03T07:43:03.838Z,87.81
2018-10-03T07:46:07.505Z,87.83
2018-10-03T07:49:10.976Z,87.90
2018-10-03T07:52:14.438Z,87.43
2018-10-03T07:55:18.055Z,87.40
2018-10-03T07:58:21.592Z,87.79
2018-10-03T08:01:25.108Z,87.17
2018-10-03T08:04:28.542Z,86.40
2018-10-03T08:07:32.003Z,86.49
2018-10-03T08:10:35.587Z,85.88
2018-10-03T08:13:39.131Z,86.32
2018-10-03T08:16:42.556Z,85.15
2018-10-03T08:19:45.963Z,85.39
2018-10-03T08:22:49.381Z,84.34
2018-10-03T08:25:52.864Z,84.24
2018-10-03T08:28:56.294Z,83.28
2018-10-03T08:31:59.836Z,83.45
2018-10-03T08:35:03.329Z,82.32
2018-10-03T08:38:06.783Z,82.46
2018-10-03T08:41:10.258Z,81.74
2018-10-03T08:44:13.676Z,81.53
2018-10-03T08:47:17.076Z,80.58
2018-10-03T08:50:20.492Z,78.96
2018-10-03T08:53:24.232Z,78.41
2018-10-03T08:56:27.742Z,77.89
2018-10-03T08:59:31.158Z,78.19
2018-10-03T09:02:34.615Z,77.20
2018-10-03T09:05:37.968Z,76.16
2018-10-03T09:08:41.383Z,74.90
2018-10-03T09:11:44.811Z,74.08
2018-10-03T09:14:48.264Z,75.07
2018-10-03T09:17:51.666Z,75.21
2018-10-03T09:20:55.101Z,75.78
2018-10-03T09:23:58.489Z,74.05
2018-10-03T09:27:01.860Z,73.24
2018-10-03T09:30:05.464Z,72.99
2018-10-03T09:33:09.208Z,73.46
2018-10-03T09:36:12.819Z,73.96
2018-10-03T09:39:16.175Z,73.99
2018-10-03T09:42:19.975Z,73.94
2018-10-03T09:45:23.403Z,73.81
2018-10-03T09:48:26.797Z,73.35
2018-10-03T09:51:30.191Z,72.46
2018-10-03T09:54:33.591Z,71.95
2018-10-03T09:57:37.067Z,71.73
2018-10-03T10:00:45.817Z,71.69
2018-10-03T10:03:49.218Z,71.96
2018-10-03T10:06:53.716Z,71.24
2018-10-03T10:09:57.192Z,70.13
2018-10-03T10:13:00.689Z,70.00
2018-10-03T10:16:04.086Z,70.98
2018-10-03T10:19:07.526Z,70.44
2018-10-03T10:22:11.108Z,70.48
2018-10-03T10:25:14.494Z,70.12
2018-10-03T10:28:17.860Z,69.34
2018-10-03T10:31:21.295Z,69.98
2018-10-03T10:34:24.664Z,69.04
2018-10-03T10:37:28.057Z,67.52
2018-10-03T10:40:31.764Z,68.69
2018-10-03T10:43:35.273Z,68.58
2018-10-03T10:46:38.840Z,69.20
2018-10-03T10:49:42.374Z,68.35
2018-10-03T10:52:46.102Z,68.22
2018-10-03T10:55:49.703Z,67.54
2018-10-03T10:58:53.295Z,67.52
2018-10-03T11:01:56.930Z,66.79
2018-10-03T11:05:00.402Z,66.52
2018-10-03T11:08:04.015Z,66.60
2018-10-03T11:11:07.576Z,66.48
2018-10-03T11:14:11.116Z,66.39
2018-10-03T11:17:14.738Z,65.99
2018-10-03T11:20:18.225Z,66.90
2018-10-03T11:23:21.745Z,67.59
2018-10-03T11:26:25.214Z,67.37
2018-10-03T11:29:28.838Z,68.00
2018-10-03T11:32:32.560Z,67.12
2018-10-03T11:35:36.042Z,67.99
2018-10-03T11:38:39.624Z,67.51
2018-10-03T11:41:43.255Z,67.04
2018-10-03T11:44:46.840Z,66.39
2018-10-03T11:47:50.351Z,66.80
2018-10-03T11:50:53.860Z,65.85
2018-10-03T11:53:57.400Z,65.66
2018-10-03T11:57:02.055Z,64.62
2018-10-03T12:00:05.675Z,64.72
2018-10-03T12:03:09.347Z,64.79
2018-10-03T12:06:13.159Z,64.12
2018-10-03T12:09:16.708Z,64.47
2018-10-03T12:12:20.217Z,63.52
2018-10-03T12:15:23.722Z,63.65
2018-10-03T12:18:27.212Z,63.18
2018-10-03T12:21:31.055Z,64.38
2018-10-03T12:24:34.724Z,64.22
2018-10-03T12:27:38.444Z,63.87
2018-10-03T12:30:41.959Z,63.64
2018-10-03T12:33:45.553Z,63.52
2018-10-03T12:36:48.940Z,63.78
2018-10-03T12:39:52.477Z,63.41
2018-10-03T12:42:55.953Z,62.68
2018-10-03T12:45:59.486Z,62.13
2018-10-03T12:49:02.961Z,62.76
2018-10-03T12:52:07.306Z,62.67
2018-10-03T12:55:11.002Z,62.22
2018-10-03T12:58:14.702Z,61.10
2018-10-03T13:01:18.286Z,60.29
2018-10-03T13:04:21.698Z,59.31
2018-10-03T13:07:25.225Z,58.75
2018-10-03T13:10:29.451Z,58.48
2018-10-03T13:13:32.952Z,58.01
2018-10-03T13:16:36.604Z,57.77
2018-10-03T13:19:40.044Z,57.11
2018-10-03T13:22:43.863Z,57.40
2018-10-03T13:25:47.506Z,57.82
2018-10-03T13:28:50.941Z,55.85
2018-10-03T13:31:54.371Z,54.90
2018-10-03T13:34:57.948Z,56.90
2018-10-03T13:38:01.403Z,56.88
2018-10-03T13:41:05.001Z,56.61
2018-10-03T13:44:08.628Z,56.43
2018-10-03T13:47:12.094Z,54.54
2018-10-03T13:50:15.582Z,54.65
2018-10-03T13:53:19.127Z,54.33
2018-10-03T13:56:22.669Z,54.17
2018-10-03T13:59:26.165Z,54.20
2018-10-03T14:02:29.604Z,53.10
2018-10-03T14:05:33.239Z,53.03
2018-10-03T14:08:36.776Z,52.71
2018-10-03T14:11:40.427Z,54.03
2018-10-03T14:15:47.133Z,55.32
2018-10-03T14:18:50.593Z,56.98
2018-10-03T14:21:54.572Z,56.63
2018-10-03T14:24:58.077Z,57.35
2018-10-03T14:28:01.504Z,58.13
2018-10-03T14:31:04.974Z,58.09
2018-10-03T14:34:08.441Z,58.25
2018-10-03T14:37:11.931Z,59.08
2018-10-03T14:40:16.387Z,60.05
2018-10-03T14:43:19.921Z,60.53
2018-10-03T14:46:23.403Z,60.62
2018-10-03T14:49:26.822Z,60.13
2018-10-03T14:52:30.312Z,60.83
2018-10-03T14:55:33.802Z,60.63
2018-10-03T14:58:37.561Z,60.65
2018-10-03T15:01:40.993Z,60.71
2018-10-03T15:04:44.349Z,61.07
2018-10-03T15:07:47.861Z,60.92
2018-10-03T15:10:51.281Z,61.22
2018-10-03T15:13:54.779Z,61.53
2018-10-03T15:16:58.168Z,62.00
2018-10-03T15:20:01.722Z,61.53
2018-10-03T15:23:05.212Z,61.33
2018-10-03T15:26:08.958Z,60.90
2018-10-03T15:29:12.437Z,61.22
2018-10-03T15:32:15.957Z,61.79
2018-10-03T15:35:19.462Z,61.97
2018-10-03T15:38:22.912Z,61.64
2018-10-03T15:41:26.466Z,61.32
2018-10-03T15:44:30.054Z,60.37
2018-10-03T15:47:33.548Z,60.58
2018-10-03T15:50:37.235Z,60.06
2018-10-03T15:53:40.754Z,59.15
2018-10-03T15:56:45.302Z,60.12
2018-10-03T15:59:48.806Z,60.56
2018-10-03T16:02:52.358Z,60.43
2018-10-03T16:05:56.633Z,60.60
2018-10-03T16:09:00.201Z,60.59
2018-10-03T16:12:04.269Z,60.80
2018-10-03T16:15:08.115Z,60.46
2018-10-03T16:18:12.771Z,61.08
2018-10-03T16:21:16.365Z,59.84
2018-10-03T16:24:20.023Z,59.11
2018-10-03T16:27:24.056Z,61.01
2018-10-03T16:30:27.737Z,61.57
2018-10-03T16:33:31.343Z,55.10
2018-10-03T16:36:35.076Z,52.23
2018-10-03T16:39:39.475Z,51.63
2018-10-03T16:42:43.119Z,51.92
2018-10-03T16:45:46.727Z,51.15
2018-10-03T16:48:50.354Z,51.94
2018-10-03T16:51:53.843Z,51.00
2018-10-03T16:54:57.693Z,50.89
2018-10-03T16:58:01.313Z,50.65
2018-10-03T17:01:04.888Z,50.37
2018-10-03T17:04:09.425Z,50.60
2018-10-03T17:07:12.952Z,50.43
2018-10-03T17:10:16.434Z,50.33
2018-10-03T17:13:19.995Z,50.96
2018-10-03T17:16:23.615Z,50.93
2018-10-03T17:19:27.160Z,50.36
2018-10-03T17:22:30.640Z,51.26
2018-10-03T17:25:34.159Z,51.38
2018-10-03T17:28:37.632Z,51.16
2018-10-03T17:31:42.253Z,51.48
2018-10-03T17:34:45.760Z,51.65
2018-10-03T17:37:49.362Z,51.81
2018-10-03T17:40:52.785Z,52.25
2018-10-03T17:43:56.571Z,52.48
2018-10-03T17:47:00.063Z,52.59
2018-10-03T17:50:03.596Z,52.28
2018-10-03T17:53:07.226Z,52.43
2018-10-03T17:56:10.684Z,52.58
2018-10-03T17:59:14.185Z,52.63
2018-10-03T18:02:17.593Z,52.63
2018-10-03T18:05:21.096Z,52.81
2018-10-03T18:08:24.495Z,52.87
2018-10-03T18:11:28.000Z,53.05
2018-10-03T18:14:31.553Z,53.64
2018-10-03T18:17:35.162Z,53.83
2018-10-03T18:20:38.739Z,53.79
2018-10-03T18:23:42.337Z,53.80
2018-10-03T18:26:45.876Z,53.98
2018-10-03T18:29:49.323Z,54.03
2018-10-03T18:32:52.920Z,54.49
2018-10-03T18:35:56.457Z,54.74
2018-10-03T18:38:59.961Z,55.42
2018-10-03T18:42:03.529Z,56.02
2018-10-03T18:45:07.118Z,55.96
2018-10-03T18:48:10.577Z,56.29
2018-10-03T18:51:14.084Z,56.96
2018-10-03T18:54:17.623Z,57.77
2018-10-03T18:57:21.090Z,58.08
2018-10-03T19:00:24.548Z,58.23
2018-10-03T19:03:27.948Z,58.46
2018-10-03T19:06:31.456Z,59.00
2018-10-03T19:09:34.950Z,59.03
2018-10-03T19:12:38.965Z,59.51
2018-10-03T19:15:42.419Z,60.04
2018-10-03T19:18:46.823Z,60.63
2018-10-03T19:21:50.313Z,61.10
2018-10-03T19:24:53.832Z,61.19
2018-10-03T19:27:57.567Z,61.07
2018-10-03T19:31:01.149Z,61.76
2018-10-03T19:34:04.710Z,62.12
2018-10-03T19:37:08.137Z,62.57
2018-10-03T19:40:11.717Z,62.80
2018-10-03T19:43:15.137Z,63.21
2018-10-03T19:46:18.528Z,63.61
2018-10-03T19:49:21.926Z,63.63
2018-10-03T19:52:25.447Z,64.10
2018-10-03T19:55:28.937Z,64.57
2018-10-03T19:58:32.772Z,64.37
2018-10-03T20:01:36.353Z,65.39
2018-10-03T20:04:39.838Z,65.68
2018-10-03T20:07:43.374Z,66.17
2018-10-03T20:10:46.933Z,66.61
2018-10-03T20:13:50.368Z,67.03
2018-10-03T20:16:53.765Z,67.42
2018-10-03T20:19:57.315Z,67.63
2018-10-03T20:23:00.805Z,67.61
2018-10-03T20:26:04.309Z,68.22
2018-10-03T20:29:07.799Z,68.30
2018-10-03T20:32:11.343Z,68.25
2018-10-03T20:35:14.762Z,68.60
2018-10-03T20:38:18.147Z,68.83
2018-10-03T20:41:21.630Z,68.78
2018-10-03T20:44:25.176Z,69.41
2018-10-03T20:47:28.570Z,69.44
2018-10-03T20:50:32.046Z,69.54
2018-10-03T20:53:35.559Z,68.83
2018-10-03T20:56:39.205Z,69.24
2018-10-03T20:59:42.581Z,69.64
2018-10-03T21:02:46.315Z,69.32
2018-10-03T21:05:49.744Z,68.82
2018-10-03T21:08:53.300Z,69.28
2018-10-03T21:11:56.595Z,69.14
2018-10-03T21:14:59.964Z,68.92
2018-10-03T21:18:03.480Z,69.01
2018-10-03T21:21:07.031Z,69.67
2018-10-03T21:24:10.515Z,70.13
2018-10-03T21:27:13.981Z,70.16
2018-10-03T21:30:17.512Z,69.81
2018-10-03T21:33:20.941Z,70.29
2018-10-03T21:36:24.384Z,70.51
2018-10-03T21:39:27.892Z,70.83
2018-10-03T21:42:31.455Z,71.31
2018-10-03T21:45:34.987Z,71.26
2018-10-03T21:48:38.562Z,71.29
2018-10-03T21:51:42.007Z,71.34
2018-10-03T21:54:45.493Z,71.54
2018-10-03T21:57:49.037Z,72.02
2018-10-03T22:00:52.586Z,72.14
2018-10-03T22:03:56.120Z,72.17
2018-10-03T22:06:59.618Z,71.95
2018-10-03T22:10:03.189Z,71.34
2018-10-03T22:13:07.035Z,71.92
2018-10-03T22:16:10.543Z,71.83
2018-10-03T22:19:14.096Z,72.23
2018-10-03T22:22:17.534Z,71.98
2018-10-03T22:25:21.046Z,71.84
2018-10-03T22:28:25.942Z,71.95
2018-10-03T22:31:29.461Z,72.14
2018-10-03T22:34:33.035Z,72.64
2018-10-03T22:37:36.697Z,72.18
2018-10-03T22:40:40.192Z,72.65
2018-10-03T22:43:43.774Z,72.92
2018-10-03T22:46:47.318Z,73.28
2018-10-03T22:49:50.820Z,73.63
2018-10-03T22:52:55.422Z,72.95
2018-10-03T22:55:59.001Z,73.66
2018-10-03T22:59:02.434Z,73.86
2018-10-03T23:02:05.953Z,74.09
2018-10-03T23:05:09.462Z,74.12
2018-10-03T23:08:12.979Z,74.46
2018-10-03T23:11:16.465Z,75.02
2018-10-03T23:14:20.073Z,75.11
2018-10-03T23:17:23.534Z,75.52
2018-10-03T23:20:26.955Z,76.03
2018-10-03T23:23:30.443Z,74.93
2018-10-03T23:26:33.862Z,76.11
2018-10-03T23:29:37.360Z,76.05
2018-10-03T23:32:40.890Z,75.81
2018-10-03T23:35:44.622Z,75.53
2018-10-03T23:38:48.055Z,76.00
2018-10-03T23:41:51.535Z,76.07
2018-10-03T23:44:54.955Z,75.16
2018-10-03T23:47:58.361Z,75.48
2018-10-03T23:51:01.859Z,75.98
2018-10-03T23:54:05.262Z,76.02
2018-10-03T23:57:08.661Z,76.53
